sensor_id;sensor_type;location;lat;lon;timestamp;P1;durP1;ratioP1;P2;durP2;ratioP2
2396;SDS011;1209;48.410;9.054;2022-08-19T00:02:21;24.50;;;13.73;;
2396;SDS011;1209;48.410;9.054;2022-08-19T00:04:47;20.70;;;14.33;;
2396;SDS011;1209;48.410;9.054;2022-08-19T00:07:17;18.30;;;13.40;;
2396;SDS011;1209;48.410;9.054;2022-08-19T00:09:42;18.10;;;13.37;;
2396;SDS011;1209;48.410;9.054;2022-08-19T00:12:08;21.03;;;14.40;;
2396;SDS011;1209;48.410;9.054;2022-08-19T00:14:33;19.43;;;13.73;;
2396;SDS011;1209;48.410;9.054;2022-08-19T00:16:59;20.80;;;13.80;;
2396;SDS011;1209;48.410;9.054;2022-08-19T00:19:27;16.80;;;13.37;;
2396;SDS011;1209;48.410;9.054;2022-08-19T00:21:53;21.63;;;14.07;;
2396;SDS011;1209;48.410;9.054;2022-08-19T00:24:20;17.83;;;13.43;;
2396;SDS011;1209;48.410;9.054;2022-08-19T00:26:45;19.70;;;13.17;;
2396;SDS011;1209;48.410;9.054;2022-08-19T00:29:11;17.90;;;12.93;;
2396;SDS011;1209;48.410;9.054;2022-08-19T00:31:38;19.07;;;14.40;;
2396;SDS011;1209;48.410;9.054;2022-08-19T00:34:04;19.20;;;14.30;;
2396;SDS011;1209;48.410;9.054;2022-08-19T00:36:29;16.23;;;12.40;;
2396;SDS011;1209;48.410;9.054;2022-08-19T00:38:56;20.13;;;13.20;;
2396;SDS011;1209;48.410;9.054;2022-08-19T00:41:23;18.40;;;13.47;;
2396;SDS011;1209;48.410;9.054;2022-08-19T00:44:04;19.07;;;13.40;;
2396;SDS011;1209;48.410;9.054;2022-08-19T00:46:35;17.60;;;13.33;;
2396;SDS011;1209;48.410;9.054;2022-08-19T00:49:05;16.53;;;12.33;;
2396;SDS011;1209;48.410;9.054;2022-08-19T00:51:34;20.10;;;13.70;;
2396;SDS011;1209;48.410;9.054;2022-08-19T00:54:00;24.00;;;15.27;;
2396;SDS011;1209;48.410;9.054;2022-08-19T00:56:28;19.93;;;13.80;;
2396;SDS011;1209;48.410;9.054;2022-08-19T00:58:56;13.83;;;10.87;;
2396;SDS011;1209;48.410;9.054;2022-08-19T01:01:23;18.23;;;12.70;;
2396;SDS011;1209;48.410;9.054;2022-08-19T01:03:49;17.60;;;13.10;;
2396;SDS011;1209;48.410;9.054;2022-08-19T01:06:14;20.83;;;13.47;;
2396;SDS011;1209;48.410;9.054;2022-08-19T01:08:40;19.10;;;12.93;;
2396;SDS011;1209;48.410;9.054;2022-08-19T01:11:05;15.77;;;12.07;;
2396;SDS011;1209;48.410;9.054;2022-08-19T01:13:32;17.00;;;13.00;;
2396;SDS011;1209;48.410;9.054;2022-08-19T01:16:04;15.70;;;11.13;;
2396;SDS011;1209;48.410;9.054;2022-08-19T01:18:31;17.90;;;12.80;;
2396;SDS011;1209;48.410;9.054;2022-08-19T01:21:02;20.23;;;14.00;;
2396;SDS011;1209;48.410;9.054;2022-08-19T01:23:32;17.17;;;12.33;;
2396;SDS011;1209;48.410;9.054;2022-08-19T01:26:18;14.90;;;11.33;;
2396;SDS011;1209;48.410;9.054;2022-08-19T01:28:46;19.90;;;13.10;;
2396;SDS011;1209;48.410;9.054;2022-08-19T01:31:15;16.10;;;11.73;;
2396;SDS011;1209;48.410;9.054;2022-08-19T01:33:43;17.73;;;12.63;;
2396;SDS011;1209;48.410;9.054;2022-08-19T01:36:10;17.33;;;13.37;;
2396;SDS011;1209;48.410;9.054;2022-08-19T01:38:39;19.03;;;14.17;;
2396;SDS011;1209;48.410;9.054;2022-08-19T01:41:07;25.60;;;14.50;;
2396;SDS011;1209;48.410;9.054;2022-08-19T01:43:34;17.57;;;12.43;;
2396;SDS011;1209;48.410;9.054;2022-08-19T01:46:00;16.30;;;12.63;;
2396;SDS011;1209;48.410;9.054;2022-08-19T01:48:26;18.70;;;13.17;;
2396;SDS011;1209;48.410;9.054;2022-08-19T01:50:54;20.47;;;13.70;;
2396;SDS011;1209;48.410;9.054;2022-08-19T01:53:20;18.40;;;12.70;;
2396;SDS011;1209;48.410;9.054;2022-08-19T01:55:45;17.73;;;13.03;;
2396;SDS011;1209;48.410;9.054;2022-08-19T01:58:13;20.53;;;14.13;;
2396;SDS011;1209;48.410;9.054;2022-08-19T02:00:42;21.60;;;13.97;;
2396;SDS011;1209;48.410;9.054;2022-08-19T02:03:08;22.33;;;13.17;;
2396;SDS011;1209;48.410;9.054;2022-08-19T02:05:36;19.67;;;13.63;;
2396;SDS011;1209;48.410;9.054;2022-08-19T02:08:01;17.60;;;13.00;;
2396;SDS011;1209;48.410;9.054;2022-08-19T02:10:27;21.90;;;12.57;;
2396;SDS011;1209;48.410;9.054;2022-08-19T02:12:53;18.97;;;13.60;;
2396;SDS011;1209;48.410;9.054;2022-08-19T02:15:19;17.67;;;12.67;;
2396;SDS011;1209;48.410;9.054;2022-08-19T02:17:45;17.90;;;13.17;;
2396;SDS011;1209;48.410;9.054;2022-08-19T02:20:12;18.50;;;12.47;;
2396;SDS011;1209;48.410;9.054;2022-08-19T02:22:38;16.47;;;12.77;;
2396;SDS011;1209;48.410;9.054;2022-08-19T02:25:06;20.70;;;13.63;;
2396;SDS011;1209;48.410;9.054;2022-08-19T02:27:32;16.97;;;11.40;;
2396;SDS011;1209;48.410;9.054;2022-08-19T02:29:58;19.93;;;12.67;;
2396;SDS011;1209;48.410;9.054;2022-08-19T02:32:24;16.80;;;11.87;;
2396;SDS011;1209;48.410;9.054;2022-08-19T02:34:49;23.20;;;14.50;;
2396;SDS011;1209;48.410;9.054;2022-08-19T02:37:15;23.43;;;13.90;;
2396;SDS011;1209;48.410;9.054;2022-08-19T02:39:59;15.87;;;11.43;;
2396;SDS011;1209;48.410;9.054;2022-08-19T02:42:24;18.13;;;12.37;;
2396;SDS011;1209;48.410;9.054;2022-08-19T02:44:50;15.17;;;10.80;;
2396;SDS011;1209;48.410;9.054;2022-08-19T02:47:16;19.43;;;13.30;;
2396;SDS011;1209;48.410;9.054;2022-08-19T02:49:44;21.47;;;12.40;;
2396;SDS011;1209;48.410;9.054;2022-08-19T02:52:10;18.23;;;12.90;;
2396;SDS011;1209;48.410;9.054;2022-08-19T02:54:36;18.90;;;12.53;;
2396;SDS011;1209;48.410;9.054;2022-08-19T02:57:02;19.63;;;13.23;;
2396;SDS011;1209;48.410;9.054;2022-08-19T02:59:29;18.27;;;12.60;;
2396;SDS011;1209;48.410;9.054;2022-08-19T03:01:56;18.63;;;11.63;;
2396;SDS011;1209;48.410;9.054;2022-08-19T03:04:21;19.33;;;12.60;;
2396;SDS011;1209;48.410;9.054;2022-08-19T03:06:48;20.73;;;12.93;;
2396;SDS011;1209;48.410;9.054;2022-08-19T03:09:14;21.10;;;13.20;;
2396;SDS011;1209;48.410;9.054;2022-08-19T03:11:40;20.67;;;13.03;;
2396;SDS011;1209;48.410;9.054;2022-08-19T03:14:07;21.70;;;11.80;;
2396;SDS011;1209;48.410;9.054;2022-08-19T03:16:35;20.60;;;12.73;;
2396;SDS011;1209;48.410;9.054;2022-08-19T03:19:11;19.63;;;12.33;;
2396;SDS011;1209;48.410;9.054;2022-08-19T03:21:36;20.03;;;12.77;;
2396;SDS011;1209;48.410;9.054;2022-08-19T03:24:03;17.60;;;12.10;;
2396;SDS011;1209;48.410;9.054;2022-08-19T03:26:30;18.70;;;12.13;;
2396;SDS011;1209;48.410;9.054;2022-08-19T03:28:56;17.17;;;12.13;;
2396;SDS011;1209;48.410;9.054;2022-08-19T03:31:22;21.50;;;12.90;;
2396;SDS011;1209;48.410;9.054;2022-08-19T03:33:48;18.30;;;13.00;;
2396;SDS011;1209;48.410;9.054;2022-08-19T03:36:15;18.70;;;12.33;;
2396;SDS011;1209;48.410;9.054;2022-08-19T03:38:44;20.03;;;13.37;;
2396;SDS011;1209;48.410;9.054;2022-08-19T03:41:15;18.40;;;12.50;;
2396;SDS011;1209;48.410;9.054;2022-08-19T03:43:43;19.20;;;12.53;;
2396;SDS011;1209;48.410;9.054;2022-08-19T03:46:13;18.00;;;12.93;;
2396;SDS011;1209;48.410;9.054;2022-08-19T03:48:41;23.47;;;13.10;;
2396;SDS011;1209;48.410;9.054;2022-08-19T03:51:08;19.93;;;12.60;;
2396;SDS011;1209;48.410;9.054;2022-08-19T03:53:41;21.57;;;13.97;;
2396;SDS011;1209;48.410;9.054;2022-08-19T03:56:08;20.67;;;12.20;;
2396;SDS011;1209;48.410;9.054;2022-08-19T03:58:35;19.43;;;12.37;;
2396;SDS011;1209;48.410;9.054;2022-08-19T04:01:02;22.07;;;13.77;;
2396;SDS011;1209;48.410;9.054;2022-08-19T04:03:33;19.37;;;12.20;;
2396;SDS011;1209;48.410;9.054;2022-08-19T04:05:59;22.40;;;14.50;;
2396;SDS011;1209;48.410;9.054;2022-08-19T04:08:24;21.70;;;13.10;;
2396;SDS011;1209;48.410;9.054;2022-08-19T04:10:50;18.37;;;13.50;;
2396;SDS011;1209;48.410;9.054;2022-08-19T04:13:16;18.07;;;12.63;;
2396;SDS011;1209;48.410;9.054;2022-08-19T04:15:43;22.03;;;12.87;;
2396;SDS011;1209;48.410;9.054;2022-08-19T04:18:11;20.63;;;13.53;;
2396;SDS011;1209;48.410;9.054;2022-08-19T04:20:39;21.47;;;13.60;;
2396;SDS011;1209;48.410;9.054;2022-08-19T04:23:05;21.67;;;13.80;;
2396;SDS011;1209;48.410;9.054;2022-08-19T04:25:34;23.00;;;12.93;;
2396;SDS011;1209;48.410;9.054;2022-08-19T04:28:03;18.53;;;12.80;;
2396;SDS011;1209;48.410;9.054;2022-08-19T04:30:28;22.13;;;13.87;;
2396;SDS011;1209;48.410;9.054;2022-08-19T04:32:54;21.50;;;12.87;;
2396;SDS011;1209;48.410;9.054;2022-08-19T04:35:19;18.80;;;12.03;;
2396;SDS011;1209;48.410;9.054;2022-08-19T04:37:44;21.20;;;14.53;;
2396;SDS011;1209;48.410;9.054;2022-08-19T04:40:10;23.80;;;14.30;;
2396;SDS011;1209;48.410;9.054;2022-08-19T04:42:54;21.93;;;13.63;;
2396;SDS011;1209;48.410;9.054;2022-08-19T04:45:19;19.63;;;13.43;;
2396;SDS011;1209;48.410;9.054;2022-08-19T04:47:45;24.37;;;14.00;;
2396;SDS011;1209;48.410;9.054;2022-08-19T04:50:10;22.50;;;13.13;;
2396;SDS011;1209;48.410;9.054;2022-08-19T04:52:37;19.20;;;12.73;;
2396;SDS011;1209;48.410;9.054;2022-08-19T04:55:08;18.83;;;12.97;;
2396;SDS011;1209;48.410;9.054;2022-08-19T04:57:35;20.37;;;13.10;;
2396;SDS011;1209;48.410;9.054;2022-08-19T05:00:01;22.80;;;14.67;;
2396;SDS011;1209;48.410;9.054;2022-08-19T05:02:28;24.83;;;14.57;;
2396;SDS011;1209;48.410;9.054;2022-08-19T05:04:57;19.37;;;12.70;;
2396;SDS011;1209;48.410;9.054;2022-08-19T05:07:25;19.40;;;13.97;;
2396;SDS011;1209;48.410;9.054;2022-08-19T05:09:51;18.17;;;12.63;;
2396;SDS011;1209;48.410;9.054;2022-08-19T05:12:17;19.97;;;13.20;;
2396;SDS011;1209;48.410;9.054;2022-08-19T05:14:43;21.43;;;12.90;;
2396;SDS011;1209;48.410;9.054;2022-08-19T05:17:10;27.10;;;13.67;;
2396;SDS011;1209;48.410;9.054;2022-08-19T05:19:36;24.13;;;13.97;;
2396;SDS011;1209;48.410;9.054;2022-08-19T05:22:36;23.40;;;14.33;;
2396;SDS011;1209;48.410;9.054;2022-08-19T05:25:03;24.50;;;15.13;;
2396;SDS011;1209;48.410;9.054;2022-08-19T05:27:34;22.57;;;13.70;;
2396;SDS011;1209;48.410;9.054;2022-08-19T05:29:59;23.60;;;13.67;;
2396;SDS011;1209;48.410;9.054;2022-08-19T05:32:25;21.80;;;13.33;;
2396;SDS011;1209;48.410;9.054;2022-08-19T05:34:52;23.53;;;14.47;;
2396;SDS011;1209;48.410;9.054;2022-08-19T05:37:17;22.23;;;14.80;;
2396;SDS011;1209;48.410;9.054;2022-08-19T05:39:42;23.63;;;14.13;;
2396;SDS011;1209;48.410;9.054;2022-08-19T05:42:08;22.97;;;16.00;;
2396;SDS011;1209;48.410;9.054;2022-08-19T05:44:36;22.90;;;13.77;;
2396;SDS011;1209;48.410;9.054;2022-08-19T05:47:05;19.30;;;13.20;;
2396;SDS011;1209;48.410;9.054;2022-08-19T05:49:32;22.33;;;13.37;;
2396;SDS011;1209;48.410;9.054;2022-08-19T05:51:58;22.70;;;14.20;;
2396;SDS011;1209;48.410;9.054;2022-08-19T05:54:26;22.73;;;14.63;;
2396;SDS011;1209;48.410;9.054;2022-08-19T05:56:52;23.97;;;14.30;;
2396;SDS011;1209;48.410;9.054;2022-08-19T05:59:18;21.50;;;13.57;;
2396;SDS011;1209;48.410;9.054;2022-08-19T06:01:46;23.13;;;14.20;;
2396;SDS011;1209;48.410;9.054;2022-08-19T06:04:15;22.20;;;13.87;;
2396;SDS011;1209;48.410;9.054;2022-08-19T06:06:43;25.00;;;14.80;;
2396;SDS011;1209;48.410;9.054;2022-08-19T06:09:09;27.40;;;15.20;;
2396;SDS011;1209;48.410;9.054;2022-08-19T06:11:39;19.57;;;12.23;;
2396;SDS011;1209;48.410;9.054;2022-08-19T06:14:09;24.40;;;14.03;;
2396;SDS011;1209;48.410;9.054;2022-08-19T06:16:38;25.17;;;14.33;;
2396;SDS011;1209;48.410;9.054;2022-08-19T06:19:07;25.23;;;14.80;;
2396;SDS011;1209;48.410;9.054;2022-08-19T06:21:37;22.00;;;14.20;;
2396;SDS011;1209;48.410;9.054;2022-08-19T06:24:05;27.43;;;15.93;;
2396;SDS011;1209;48.410;9.054;2022-08-19T06:26:36;25.23;;;15.37;;
2396;SDS011;1209;48.410;9.054;2022-08-19T06:29:04;27.13;;;14.77;;
2396;SDS011;1209;48.410;9.054;2022-08-19T06:31:32;24.17;;;15.90;;
2396;SDS011;1209;48.410;9.054;2022-08-19T06:33:59;24.93;;;15.00;;
2396;SDS011;1209;48.410;9.054;2022-08-19T06:36:29;21.73;;;13.60;;
2396;SDS011;1209;48.410;9.054;2022-08-19T06:39:07;22.20;;;14.47;;
2396;SDS011;1209;48.410;9.054;2022-08-19T06:41:35;22.00;;;14.40;;
2396;SDS011;1209;48.410;9.054;2022-08-19T06:44:02;26.03;;;16.83;;
2396;SDS011;1209;48.410;9.054;2022-08-19T06:46:28;26.63;;;14.67;;
2396;SDS011;1209;48.410;9.054;2022-08-19T06:48:54;21.83;;;13.87;;
2396;SDS011;1209;48.410;9.054;2022-08-19T06:51:20;21.30;;;15.40;;
2396;SDS011;1209;48.410;9.054;2022-08-19T06:53:47;20.30;;;14.33;;
2396;SDS011;1209;48.410;9.054;2022-08-19T06:56:18;24.73;;;15.27;;
2396;SDS011;1209;48.410;9.054;2022-08-19T06:58:46;22.53;;;14.70;;
2396;SDS011;1209;48.410;9.054;2022-08-19T07:01:11;25.07;;;15.90;;
2396;SDS011;1209;48.410;9.054;2022-08-19T07:03:38;23.07;;;14.60;;
2396;SDS011;1209;48.410;9.054;2022-08-19T07:06:08;27.57;;;15.97;;
2396;SDS011;1209;48.410;9.054;2022-08-19T07:08:37;26.83;;;15.07;;
2396;SDS011;1209;48.410;9.054;2022-08-19T07:11:08;23.90;;;15.73;;
2396;SDS011;1209;48.410;9.054;2022-08-19T07:13:35;24.40;;;15.60;;
2396;SDS011;1209;48.410;9.054;2022-08-19T07:16:05;28.70;;;15.40;;
2396;SDS011;1209;48.410;9.054;2022-08-19T07:18:33;22.23;;;14.50;;
2396;SDS011;1209;48.410;9.054;2022-08-19T07:21:07;27.70;;;15.57;;
2396;SDS011;1209;48.410;9.054;2022-08-19T07:23:40;26.67;;;16.37;;
2396;SDS011;1209;48.410;9.054;2022-08-19T07:26:07;29.47;;;17.20;;
2396;SDS011;1209;48.410;9.054;2022-08-19T07:28:39;26.20;;;16.57;;
2396;SDS011;1209;48.410;9.054;2022-08-19T07:31:05;27.87;;;17.13;;
2396;SDS011;1209;48.410;9.054;2022-08-19T07:33:31;24.57;;;15.40;;
2396;SDS011;1209;48.410;9.054;2022-08-19T07:35:58;25.50;;;17.17;;
2396;SDS011;1209;48.410;9.054;2022-08-19T07:38:24;21.20;;;14.93;;
2396;SDS011;1209;48.410;9.054;2022-08-19T07:40:50;26.70;;;16.17;;
2396;SDS011;1209;48.410;9.054;2022-08-19T07:43:16;23.00;;;14.50;;
2396;SDS011;1209;48.410;9.054;2022-08-19T07:45:50;31.10;;;18.50;;
2396;SDS011;1209;48.410;9.054;2022-08-19T07:48:17;29.27;;;16.43;;
2396;SDS011;1209;48.410;9.054;2022-08-19T07:50:42;28.10;;;16.07;;
2396;SDS011;1209;48.410;9.054;2022-08-19T07:53:07;24.20;;;14.80;;
2396;SDS011;1209;48.410;9.054;2022-08-19T07:55:33;29.43;;;17.27;;
2396;SDS011;1209;48.410;9.054;2022-08-19T07:57:59;26.03;;;15.17;;
2396;SDS011;1209;48.410;9.054;2022-08-19T08:00:25;26.57;;;16.23;;
2396;SDS011;1209;48.410;9.054;2022-08-19T08:02:51;30.70;;;17.13;;
2396;SDS011;1209;48.410;9.054;2022-08-19T08:05:17;30.50;;;18.00;;
2396;SDS011;1209;48.410;9.054;2022-08-19T08:08:01;25.20;;;15.60;;
2396;SDS011;1209;48.410;9.054;2022-08-19T08:10:45;26.80;;;16.87;;
2396;SDS011;1209;48.410;9.054;2022-08-19T08:13:10;29.67;;;16.00;;
2396;SDS011;1209;48.410;9.054;2022-08-19T08:15:37;27.93;;;16.80;;
2396;SDS011;1209;48.410;9.054;2022-08-19T08:18:03;25.70;;;15.67;;
2396;SDS011;1209;48.410;9.054;2022-08-19T08:20:29;29.10;;;16.53;;
2396;SDS011;1209;48.410;9.054;2022-08-19T08:22:54;26.30;;;16.10;;
2396;SDS011;1209;48.410;9.054;2022-08-19T08:25:38;27.40;;;16.40;;
2396;SDS011;1209;48.410;9.054;2022-08-19T08:28:04;23.83;;;15.90;;
2396;SDS011;1209;48.410;9.054;2022-08-19T08:30:30;26.27;;;16.87;;
2396;SDS011;1209;48.410;9.054;2022-08-19T08:32:58;28.77;;;17.33;;
2396;SDS011;1209;48.410;9.054;2022-08-19T08:35:23;24.13;;;16.17;;
2396;SDS011;1209;48.410;9.054;2022-08-19T08:37:50;28.13;;;15.63;;
2396;SDS011;1209;48.410;9.054;2022-08-19T08:42:44;26.87;;;16.10;;
2396;SDS011;1209;48.410;9.054;2022-08-19T08:45:16;27.93;;;16.33;;
2396;SDS011;1209;48.410;9.054;2022-08-19T08:47:44;26.83;;;16.20;;
2396;SDS011;1209;48.410;9.054;2022-08-19T08:52:46;23.60;;;15.20;;
2396;SDS011;1209;48.410;9.054;2022-08-19T08:55:17;27.37;;;17.13;;
2396;SDS011;1209;48.410;9.054;2022-08-19T09:00:22;26.30;;;15.63;;
2396;SDS011;1209;48.410;9.054;2022-08-19T09:02:58;23.27;;;15.03;;
2396;SDS011;1209;48.410;9.054;2022-08-19T09:06:14;25.53;;;15.27;;
2396;SDS011;1209;48.410;9.054;2022-08-19T09:11:45;23.17;;;15.30;;
2396;SDS011;1209;48.410;9.054;2022-08-19T09:17:06;31.93;;;17.87;;
2396;SDS011;1209;48.410;9.054;2022-08-19T09:19:34;28.93;;;16.70;;
2396;SDS011;1209;48.410;9.054;2022-08-19T09:22:01;27.67;;;16.20;;
2396;SDS011;1209;48.410;9.054;2022-08-19T09:24:26;24.00;;;14.30;;
2396;SDS011;1209;48.410;9.054;2022-08-19T09:26:52;29.83;;;17.43;;
2396;SDS011;1209;48.410;9.054;2022-08-19T09:29:17;24.27;;;15.30;;
2396;SDS011;1209;48.410;9.054;2022-08-19T09:31:43;25.10;;;15.20;;
2396;SDS011;1209;48.410;9.054;2022-08-19T09:34:08;28.17;;;18.07;;
2396;SDS011;1209;48.410;9.054;2022-08-19T09:36:33;24.40;;;16.83;;
2396;SDS011;1209;48.410;9.054;2022-08-19T09:39:00;29.77;;;16.73;;
2396;SDS011;1209;48.410;9.054;2022-08-19T09:41:27;27.40;;;18.10;;
2396;SDS011;1209;48.410;9.054;2022-08-19T09:43:54;31.70;;;18.17;;
2396;SDS011;1209;48.410;9.054;2022-08-19T09:46:21;32.60;;;17.87;;
2396;SDS011;1209;48.410;9.054;2022-08-19T09:48:49;25.03;;;15.80;;
2396;SDS011;1209;48.410;9.054;2022-08-19T09:51:18;28.13;;;17.80;;
2396;SDS011;1209;48.410;9.054;2022-08-19T09:53:51;29.53;;;17.53;;
2396;SDS011;1209;48.410;9.054;2022-08-19T09:56:19;27.07;;;16.00;;
2396;SDS011;1209;48.410;9.054;2022-08-19T09:58:46;27.43;;;16.00;;
2396;SDS011;1209;48.410;9.054;2022-08-19T10:01:16;26.20;;;16.10;;
2396;SDS011;1209;48.410;9.054;2022-08-19T10:03:46;25.57;;;16.00;;
2396;SDS011;1209;48.410;9.054;2022-08-19T10:06:12;25.93;;;17.73;;
2396;SDS011;1209;48.410;9.054;2022-08-19T10:08:38;30.40;;;18.00;;
2396;SDS011;1209;48.410;9.054;2022-08-19T10:11:04;26.80;;;15.70;;
2396;SDS011;1209;48.410;9.054;2022-08-19T10:13:31;25.20;;;15.60;;
2396;SDS011;1209;48.410;9.054;2022-08-19T10:16:02;24.90;;;16.60;;
2396;SDS011;1209;48.410;9.054;2022-08-19T10:18:39;26.17;;;15.83;;
2396;SDS011;1209;48.410;9.054;2022-08-19T10:21:10;25.60;;;15.00;;
2396;SDS011;1209;48.410;9.054;2022-08-19T10:23:37;23.40;;;14.67;;
2396;SDS011;1209;48.410;9.054;2022-08-19T10:26:04;27.80;;;17.13;;
2396;SDS011;1209;48.410;9.054;2022-08-19T10:28:31;26.90;;;15.90;;
2396;SDS011;1209;48.410;9.054;2022-08-19T10:31:04;25.33;;;17.30;;
2396;SDS011;1209;48.410;9.054;2022-08-19T10:33:34;23.33;;;14.77;;
2396;SDS011;1209;48.410;9.054;2022-08-19T10:36:02;28.67;;;15.97;;
2396;SDS011;1209;48.410;9.054;2022-08-19T10:38:35;23.80;;;15.97;;
2396;SDS011;1209;48.410;9.054;2022-08-19T10:41:11;25.07;;;16.10;;
2396;SDS011;1209;48.410;9.054;2022-08-19T10:43:41;31.33;;;16.60;;
2396;SDS011;1209;48.410;9.054;2022-08-19T10:46:08;27.00;;;17.33;;
2396;SDS011;1209;48.410;9.054;2022-08-19T10:48:35;29.53;;;17.67;;
2396;SDS011;1209;48.410;9.054;2022-08-19T10:51:01;29.00;;;17.57;;
2396;SDS011;1209;48.410;9.054;2022-08-19T10:53:46;19.73;;;14.37;;
2396;SDS011;1209;48.410;9.054;2022-08-19T10:56:12;24.67;;;15.47;;
2396;SDS011;1209;48.410;9.054;2022-08-19T10:58:56;28.40;;;17.13;;
2396;SDS011;1209;48.410;9.054;2022-08-19T11:01:23;30.70;;;17.70;;
2396;SDS011;1209;48.410;9.054;2022-08-19T11:03:49;31.30;;;17.80;;
2396;SDS011;1209;48.410;9.054;2022-08-19T11:06:14;27.17;;;17.50;;
2396;SDS011;1209;48.410;9.054;2022-08-19T11:08:40;26.33;;;16.90;;
2396;SDS011;1209;48.410;9.054;2022-08-19T11:11:07;28.03;;;16.13;;
2396;SDS011;1209;48.410;9.054;2022-08-19T11:13:33;27.83;;;16.47;;
2396;SDS011;1209;48.410;9.054;2022-08-19T11:16:02;24.07;;;16.73;;
2396;SDS011;1209;48.410;9.054;2022-08-19T11:18:36;26.60;;;16.90;;
2396;SDS011;1209;48.410;9.054;2022-08-19T11:21:10;28.70;;;17.03;;
2396;SDS011;1209;48.410;9.054;2022-08-19T11:23:55;24.87;;;16.47;;
2396;SDS011;1209;48.410;9.054;2022-08-19T11:26:22;27.20;;;17.20;;
2396;SDS011;1209;48.410;9.054;2022-08-19T11:28:48;26.17;;;15.83;;
2396;SDS011;1209;48.410;9.054;2022-08-19T11:31:18;25.43;;;15.17;;
2396;SDS011;1209;48.410;9.054;2022-08-19T11:33:45;19.67;;;13.37;;
2396;SDS011;1209;48.410;9.054;2022-08-19T11:36:11;27.37;;;17.20;;
2396;SDS011;1209;48.410;9.054;2022-08-19T11:38:36;20.70;;;14.80;;
2396;SDS011;1209;48.410;9.054;2022-08-19T11:41:04;23.17;;;15.90;;
2396;SDS011;1209;48.410;9.054;2022-08-19T11:43:32;27.83;;;17.83;;
2396;SDS011;1209;48.410;9.054;2022-08-19T11:45:58;24.67;;;16.40;;
2396;SDS011;1209;48.410;9.054;2022-08-19T11:48:24;20.90;;;15.07;;
2396;SDS011;1209;48.410;9.054;2022-08-19T11:50:50;25.10;;;16.30;;
2396;SDS011;1209;48.410;9.054;2022-08-19T11:53:18;23.53;;;16.30;;
2396;SDS011;1209;48.410;9.054;2022-08-19T11:55:45;21.77;;;15.57;;
2396;SDS011;1209;48.410;9.054;2022-08-19T11:58:12;24.20;;;17.17;;
2396;SDS011;1209;48.410;9.054;2022-08-19T12:00:40;23.70;;;15.67;;
2396;SDS011;1209;48.410;9.054;2022-08-19T12:03:06;20.10;;;14.87;;
2396;SDS011;1209;48.410;9.054;2022-08-19T12:05:32;21.27;;;14.93;;
2396;SDS011;1209;48.410;9.054;2022-08-19T12:07:57;29.60;;;15.87;;
2396;SDS011;1209;48.410;9.054;2022-08-19T12:10:22;23.67;;;17.30;;
2396;SDS011;1209;48.410;9.054;2022-08-19T12:12:48;18.83;;;13.77;;
2396;SDS011;1209;48.410;9.054;2022-08-19T12:15:14;19.23;;;14.37;;
2396;SDS011;1209;48.410;9.054;2022-08-19T12:17:40;21.10;;;13.67;;
2396;SDS011;1209;48.410;9.054;2022-08-19T12:20:07;22.07;;;15.17;;
2396;SDS011;1209;48.410;9.054;2022-08-19T12:22:35;19.20;;;14.73;;
2396;SDS011;1209;48.410;9.054;2022-08-19T12:25:01;17.53;;;14.13;;
2396;SDS011;1209;48.410;9.054;2022-08-19T12:27:27;19.77;;;14.90;;
2396;SDS011;1209;48.410;9.054;2022-08-19T12:29:53;21.50;;;14.40;;
2396;SDS011;1209;48.410;9.054;2022-08-19T12:32:18;19.47;;;14.13;;
2396;SDS011;1209;48.410;9.054;2022-08-19T12:34:43;21.50;;;14.80;;
2396;SDS011;1209;48.410;9.054;2022-08-19T12:37:09;21.70;;;15.73;;
2396;SDS011;1209;48.410;9.054;2022-08-19T12:39:39;19.00;;;13.40;;
2396;SDS011;1209;48.410;9.054;2022-08-19T12:42:07;17.00;;;13.73;;
2396;SDS011;1209;48.410;9.054;2022-08-19T12:44:34;21.33;;;15.23;;
2396;SDS011;1209;48.410;9.054;2022-08-19T12:47:01;17.40;;;12.80;;
2396;SDS011;1209;48.410;9.054;2022-08-19T12:49:28;18.20;;;13.23;;
2396;SDS011;1209;48.410;9.054;2022-08-19T12:51:54;21.50;;;14.90;;
2396;SDS011;1209;48.410;9.054;2022-08-19T12:54:19;19.10;;;14.53;;
2396;SDS011;1209;48.410;9.054;2022-08-19T12:56:45;19.67;;;13.70;;
2396;SDS011;1209;48.410;9.054;2022-08-19T12:59:10;19.50;;;13.40;;
2396;SDS011;1209;48.410;9.054;2022-08-19T13:01:36;18.70;;;14.10;;
2396;SDS011;1209;48.410;9.054;2022-08-19T13:04:01;18.30;;;12.73;;
2396;SDS011;1209;48.410;9.054;2022-08-19T13:06:27;17.10;;;13.30;;
2396;SDS011;1209;48.410;9.054;2022-08-19T13:08:53;19.37;;;14.30;;
2396;SDS011;1209;48.410;9.054;2022-08-19T13:11:20;22.47;;;14.90;;
2396;SDS011;1209;48.410;9.054;2022-08-19T13:13:48;19.03;;;12.87;;
2396;SDS011;1209;48.410;9.054;2022-08-19T13:16:16;19.23;;;13.47;;
2396;SDS011;1209;48.410;9.054;2022-08-19T13:18:43;19.33;;;13.23;;
2396;SDS011;1209;48.410;9.054;2022-08-19T13:21:12;21.40;;;14.50;;
2396;SDS011;1209;48.410;9.054;2022-08-19T13:23:38;17.80;;;13.00;;
2396;SDS011;1209;48.410;9.054;2022-08-19T13:26:05;23.13;;;13.40;;
2396;SDS011;1209;48.410;9.054;2022-08-19T13:28:32;16.73;;;13.70;;
2396;SDS011;1209;48.410;9.054;2022-08-19T13:31:18;20.83;;;15.57;;
2396;SDS011;1209;48.410;9.054;2022-08-19T13:34:04;17.37;;;13.13;;
2396;SDS011;1209;48.410;9.054;2022-08-19T13:36:31;17.90;;;13.00;;
2396;SDS011;1209;48.410;9.054;2022-08-19T13:38:57;19.03;;;14.43;;
2396;SDS011;1209;48.410;9.054;2022-08-19T13:41:23;19.30;;;14.87;;
2396;SDS011;1209;48.410;9.054;2022-08-19T13:43:48;14.50;;;11.00;;
2396;SDS011;1209;48.410;9.054;2022-08-19T13:46:14;15.67;;;12.27;;
2396;SDS011;1209;48.410;9.054;2022-08-19T13:48:40;20.47;;;14.93;;
2396;SDS011;1209;48.410;9.054;2022-08-19T13:51:06;16.60;;;12.30;;
2396;SDS011;1209;48.410;9.054;2022-08-19T13:53:35;18.57;;;14.03;;
2396;SDS011;1209;48.410;9.054;2022-08-19T13:56:06;18.23;;;14.07;;
2396;SDS011;1209;48.410;9.054;2022-08-19T13:58:32;19.13;;;13.20;;
2396;SDS011;1209;48.410;9.054;2022-08-19T14:00:58;20.50;;;15.27;;
2396;SDS011;1209;48.410;9.054;2022-08-19T14:03:24;18.43;;;14.10;;
2396;SDS011;1209;48.410;9.054;2022-08-19T14:05:50;19.87;;;13.87;;
2396;SDS011;1209;48.410;9.054;2022-08-19T14:08:16;18.77;;;13.50;;
2396;SDS011;1209;48.410;9.054;2022-08-19T14:10:43;14.27;;;11.73;;
2396;SDS011;1209;48.410;9.054;2022-08-19T14:13:09;19.80;;;14.53;;
2396;SDS011;1209;48.410;9.054;2022-08-19T14:15:38;17.70;;;14.97;;
2396;SDS011;1209;48.410;9.054;2022-08-19T14:18:03;25.40;;;16.73;;
2396;SDS011;1209;48.410;9.054;2022-08-19T14:20:28;26.93;;;18.30;;
2396;SDS011;1209;48.410;9.054;2022-08-19T14:22:54;25.77;;;18.67;;
2396;SDS011;1209;48.410;9.054;2022-08-19T14:25:22;24.77;;;17.43;;
2396;SDS011;1209;48.410;9.054;2022-08-19T14:27:50;24.13;;;15.90;;
2396;SDS011;1209;48.410;9.054;2022-08-19T14:30:17;23.27;;;16.80;;
2396;SDS011;1209;48.410;9.054;2022-08-19T14:32:45;21.10;;;16.00;;
2396;SDS011;1209;48.410;9.054;2022-08-19T14:35:11;26.40;;;18.17;;
2396;SDS011;1209;48.410;9.054;2022-08-19T14:37:39;21.80;;;17.13;;
2396;SDS011;1209;48.410;9.054;2022-08-19T14:40:06;21.37;;;15.77;;
2396;SDS011;1209;48.410;9.054;2022-08-19T14:42:31;25.10;;;16.97;;
2396;SDS011;1209;48.410;9.054;2022-08-19T14:44:58;22.77;;;16.80;;
2396;SDS011;1209;48.410;9.054;2022-08-19T14:47:24;28.17;;;18.20;;
2396;SDS011;1209;48.410;9.054;2022-08-19T14:49:50;25.90;;;17.57;;
2396;SDS011;1209;48.410;9.054;2022-08-19T14:52:15;26.20;;;17.63;;
2396;SDS011;1209;48.410;9.054;2022-08-19T14:54:41;18.90;;;15.47;;
2396;SDS011;1209;48.410;9.054;2022-08-19T14:57:06;20.33;;;14.90;;
2396;SDS011;1209;48.410;9.054;2022-08-19T14:59:33;23.13;;;16.87;;
2396;SDS011;1209;48.410;9.054;2022-08-19T15:01:59;33.30;;;18.90;;
2396;SDS011;1209;48.410;9.054;2022-08-19T15:04:25;24.07;;;17.90;;
2396;SDS011;1209;48.410;9.054;2022-08-19T15:06:50;19.27;;;14.27;;